createdAt,value
2018-04-08T00:01:54.458Z,10.43
2018-04-08T00:04:22.687Z,11.70
2018-04-08T00:06:50.170Z,10.73
2018-04-08T00:09:17.633Z,10.80
2018-04-08T00:11:45.115Z,12.33
2018-04-08T00:14:12.583Z,11.17
2018-04-08T00:16:40.062Z,11.00
2018-04-08T00:19:07.527Z,10.60
2018-04-08T00:21:35.004Z,10.23
2018-04-08T00:24:02.488Z,10.80
2018-04-08T00:26:29.961Z,10.10
2018-04-08T00:28:58.187Z,12.03
2018-04-08T00:31:28.625Z,11.63
2018-04-08T00:33:56.090Z,11.30
2018-04-08T00:36:24.337Z,11.90
2018-04-08T00:38:51.838Z,12.00
2018-04-08T00:41:20.070Z,10.80
2018-04-08T00:43:47.534Z,12.93
2018-04-08T00:46:15.015Z,11.07
2018-04-08T00:48:43.258Z,11.00
2018-04-08T00:51:10.848Z,10.73
2018-04-08T00:53:39.089Z,10.70
2018-04-08T00:56:06.567Z,10.70
2018-04-08T00:58:34.036Z,11.27
2018-04-08T01:01:01.495Z,10.57
2018-04-08T01:03:29.738Z,11.47
2018-04-08T01:05:57.316Z,10.80
2018-04-08T01:08:24.797Z,11.30
2018-04-08T01:10:53.025Z,11.40
2018-04-08T01:13:20.503Z,10.47
2018-04-08T01:15:49.472Z,10.13
2018-04-08T01:18:16.947Z,10.00
2018-04-08T01:20:44.413Z,10.93
2018-04-08T01:23:11.899Z,9.57
2018-04-08T01:25:39.378Z,10.80
2018-04-08T01:28:06.880Z,10.20
2018-04-08T01:30:34.335Z,10.40
2018-04-08T01:33:01.810Z,10.13
2018-04-08T01:35:30.047Z,9.87
2018-04-08T01:37:57.544Z,10.00
2018-04-08T01:40:25.770Z,9.30
2018-04-08T01:42:53.247Z,9.90
2018-04-08T01:45:20.714Z,10.07
2018-04-08T01:47:48.198Z,10.37
2018-04-08T01:50:15.671Z,9.67
2018-04-08T01:52:43.139Z,9.57
2018-04-08T01:55:10.606Z,10.80
2018-04-08T01:57:38.083Z,9.00
2018-04-08T02:00:05.657Z,9.70
2018-04-08T02:02:33.159Z,10.07
2018-04-08T02:05:00.611Z,9.80
2018-04-08T02:07:28.073Z,9.43
2018-04-08T02:09:55.546Z,9.70
2018-04-08T02:12:23.014Z,9.83
2018-04-08T02:14:50.507Z,9.10
2018-04-08T02:17:17.962Z,9.30
2018-04-08T02:19:46.211Z,10.20
2018-04-08T02:22:13.670Z,9.00
2018-04-08T02:24:41.146Z,9.53
2018-04-08T02:27:08.645Z,9.40
2018-04-08T02:29:36.110Z,9.37
2018-04-08T02:32:03.570Z,9.40
2018-04-08T02:34:31.053Z,9.83
2018-04-08T02:36:58.543Z,10.47
2018-04-08T02:39:26.799Z,10.00
2018-04-08T02:41:54.263Z,9.67
2018-04-08T02:44:21.766Z,10.10
2018-04-08T02:46:49.215Z,9.63
2018-04-08T02:49:16.722Z,9.20
2018-04-08T02:51:44.293Z,8.40
2018-04-08T02:54:11.840Z,9.60
2018-04-08T02:56:39.307Z,9.93
2018-04-08T02:59:06.782Z,9.70
2018-04-08T03:01:35.002Z,9.67
2018-04-08T03:04:02.480Z,9.97
2018-04-08T03:06:29.943Z,9.37
2018-04-08T03:08:57.425Z,9.97
2018-04-08T03:11:24.891Z,10.60
2018-04-08T03:13:52.379Z,9.50
2018-04-08T03:16:19.845Z,9.13
2018-04-08T03:18:47.298Z,9.10
2018-04-08T03:21:14.794Z,10.47
2018-04-08T03:23:43.030Z,9.90
2018-04-08T03:26:10.518Z,10.93
2018-04-08T03:28:38.752Z,10.60
2018-04-08T03:31:06.214Z,9.73
2018-04-08T03:33:33.706Z,10.57
2018-04-08T03:36:01.174Z,10.03
2018-04-08T03:38:29.407Z,9.90
2018-04-08T03:40:56.885Z,10.17
2018-04-08T03:43:24.350Z,10.30
2018-04-08T03:45:51.906Z,10.20
2018-04-08T03:48:19.394Z,9.93
2018-04-08T03:50:46.869Z,9.90
2018-04-08T03:53:14.326Z,9.30
2018-04-08T03:55:41.830Z,9.93
2018-04-08T03:58:09.299Z,10.00
2018-04-08T04:00:37.543Z,10.33
2018-04-08T04:03:05.034Z,9.70
2018-04-08T04:05:33.274Z,11.20
2018-04-08T04:08:00.730Z,9.87
2018-04-08T04:10:28.223Z,10.60
2018-04-08T04:12:56.446Z,10.33
2018-04-08T04:15:23.910Z,10.40
2018-04-08T04:17:51.409Z,10.60
2018-04-08T04:20:30.761Z,9.67
2018-04-08T04:23:10.210Z,11.10
2018-04-08T04:25:43.213Z,10.07
2018-04-08T04:28:10.674Z,11.57
2018-04-08T04:30:38.150Z,9.97
2018-04-08T04:33:05.634Z,11.20
2018-04-08T04:35:33.869Z,10.33
2018-04-08T04:38:01.322Z,9.80
2018-04-08T04:40:28.798Z,10.40
2018-04-08T04:42:56.258Z,9.93
2018-04-08T04:45:23.714Z,9.80
2018-04-08T04:47:51.333Z,10.13
2018-04-08T04:50:18.800Z,10.63
2018-04-08T04:52:46.263Z,10.37
2018-04-08T04:55:13.758Z,11.80
2018-04-08T04:57:41.233Z,10.53
2018-04-08T05:00:09.462Z,10.80
2018-04-08T05:02:36.943Z,10.80
2018-04-08T05:05:04.403Z,9.93
2018-04-08T05:07:31.866Z,11.20
2018-04-08T05:10:00.117Z,9.60
2018-04-08T05:12:28.199Z,10.80
2018-04-08T05:14:55.647Z,11.27
2018-04-08T05:17:23.140Z,10.83
2018-04-08T05:19:51.362Z,10.40
2018-04-08T05:22:18.827Z,11.03
2018-04-08T05:24:46.302Z,10.80
2018-04-08T05:27:13.774Z,10.83
2018-04-08T05:29:41.998Z,10.80
2018-04-08T05:32:09.482Z,9.83
2018-04-08T05:34:37.707Z,10.80
2018-04-08T05:37:05.178Z,12.20
2018-04-08T05:39:32.666Z,10.37
2018-04-08T05:42:00.143Z,10.50
2018-04-08T05:44:28.363Z,9.80
2018-04-08T05:46:55.847Z,9.40
2018-04-08T05:49:23.322Z,9.23
2018-04-08T05:51:50.779Z,9.57
2018-04-08T05:54:18.263Z,9.27
2018-04-08T05:56:45.726Z,9.50
2018-04-08T05:59:13.188Z,8.70
2018-04-08T06:01:40.820Z,9.30
2018-04-08T06:04:09.051Z,10.03
2018-04-08T06:06:36.513Z,9.80
2018-04-08T06:09:03.991Z,8.40
2018-04-08T06:11:31.446Z,9.10
2018-04-08T06:13:58.913Z,9.20
2018-04-08T06:16:27.190Z,9.20
2018-04-08T06:18:54.651Z,9.10
2018-04-08T06:21:24.799Z,9.20
2018-04-08T06:23:52.286Z,9.00
2018-04-08T06:26:19.746Z,8.03
2018-04-08T06:28:47.210Z,9.40
2018-04-08T06:31:14.685Z,9.00
2018-04-08T06:33:42.150Z,8.87
2018-04-08T06:36:10.391Z,8.60
2018-04-08T06:38:37.878Z,8.37
2018-04-08T06:41:05.329Z,8.70
2018-04-08T06:43:32.831Z,8.80
2018-04-08T06:46:00.340Z,9.17
2018-04-08T06:48:27.795Z,8.50
2018-04-08T06:50:55.266Z,9.17
2018-04-08T06:53:22.761Z,8.73
2018-04-08T06:55:50.223Z,8.37
2018-04-08T06:58:17.686Z,8.53
2018-04-08T07:00:45.181Z,8.40
2018-04-08T07:03:12.630Z,8.93
2018-04-08T07:05:40.110Z,9.10
2018-04-08T07:08:08.358Z,9.20
2018-04-08T07:10:35.826Z,9.20
2018-04-08T07:13:03.294Z,8.53
2018-04-08T07:15:31.542Z,8.23
2018-04-08T07:17:59.015Z,8.97
2018-04-08T07:20:26.470Z,7.97
2018-04-08T07:22:53.966Z,8.80
2018-04-08T07:25:21.445Z,9.60
2018-04-08T07:27:48.914Z,9.07
2018-04-08T07:30:16.398Z,9.20
2018-04-08T07:32:43.860Z,8.93
2018-04-08T07:35:11.340Z,8.23
2018-04-08T07:37:39.607Z,9.93
2018-04-08T07:40:07.818Z,8.93
2018-04-08T07:42:35.288Z,9.13
2018-04-08T07:45:02.761Z,9.20
2018-04-08T07:47:31.746Z,8.77
2018-04-08T07:49:59.255Z,10.20
2018-04-08T07:52:26.681Z,9.47
2018-04-08T07:54:54.143Z,9.73
2018-04-08T07:57:22.369Z,9.50
2018-04-08T07:59:49.854Z,9.73
2018-04-08T08:02:17.318Z,10.77
2018-04-08T08:04:44.782Z,10.60
2018-04-08T08:07:12.271Z,9.87
2018-04-08T08:09:39.746Z,10.77
2018-04-08T08:12:07.214Z,10.77
2018-04-08T08:14:34.698Z,10.97
2018-04-08T08:17:02.212Z,10.80
2018-04-08T08:19:30.394Z,10.20
2018-04-08T08:21:57.897Z,10.40
2018-04-08T08:24:25.368Z,11.40
2018-04-08T08:26:52.825Z,10.33
2018-04-08T08:29:21.102Z,11.07
2018-04-08T08:31:49.373Z,10.67
2018-04-08T08:34:16.826Z,10.20
2018-04-08T08:36:45.075Z,9.40
2018-04-08T08:39:12.530Z,10.80
2018-04-08T08:41:40.009Z,9.97
2018-04-08T08:44:07.466Z,10.83
2018-04-08T08:46:35.716Z,10.70
2018-04-08T08:49:03.189Z,9.80
2018-04-08T08:51:30.662Z,9.97
2018-04-08T08:53:58.906Z,10.90
2018-04-08T08:56:26.389Z,10.83
2018-04-08T08:58:54.653Z,11.00
2018-04-08T09:01:22.159Z,11.70
2018-04-08T09:03:49.650Z,11.60
2018-04-08T09:06:17.130Z,10.90
2018-04-08T09:08:45.393Z,11.10
2018-04-08T09:11:13.887Z,11.43
2018-04-08T09:13:42.731Z,11.10
2018-04-08T09:16:15.364Z,11.37
2018-04-08T09:18:44.434Z,12.30
2018-04-08T09:21:18.515Z,11.40
2018-04-08T09:26:48.534Z,12.80
2018-04-08T09:29:17.775Z,12.60
2018-04-08T09:31:45.246Z,11.93
2018-04-08T09:34:14.127Z,12.50
2018-04-08T09:36:41.594Z,12.07
2018-04-08T09:39:09.059Z,11.67
2018-04-08T09:41:37.317Z,11.70
2018-04-08T09:44:04.782Z,11.67
2018-04-08T09:46:33.994Z,12.50
2018-04-08T09:49:02.251Z,11.50
2018-04-08T09:51:30.494Z,12.53
2018-04-08T09:53:57.982Z,11.47
2018-04-08T09:56:25.463Z,11.17
2018-04-08T09:58:54.570Z,12.30
2018-04-08T10:01:28.580Z,11.83
2018-04-08T10:03:56.047Z,11.57
2018-04-08T10:06:23.515Z,12.93
2018-04-08T10:08:51.015Z,12.10
2018-04-08T10:11:18.485Z,12.27
2018-04-08T10:13:46.750Z,12.37
2018-04-08T10:16:14.214Z,14.00
2018-04-08T10:18:42.458Z,13.40
2018-04-08T10:21:09.959Z,13.27
2018-04-08T10:23:38.194Z,14.70
2018-04-08T10:26:05.682Z,13.80
2018-04-08T10:28:33.910Z,14.03
2018-04-08T10:31:01.376Z,14.47
2018-04-08T10:33:28.862Z,13.53
2018-04-08T10:35:57.115Z,13.63
2018-04-08T10:38:24.584Z,13.93
2018-04-08T10:40:53.582Z,14.23
2018-04-08T10:43:21.818Z,13.97
2018-04-08T10:45:49.278Z,14.30
2018-04-08T10:48:16.778Z,12.80
2018-04-08T10:50:45.015Z,13.43
2018-04-08T10:53:13.326Z,14.00
2018-04-08T10:55:40.800Z,13.67
2018-04-08T10:58:08.311Z,13.30
2018-04-08T11:00:35.751Z,11.83
2018-04-08T11:03:03.254Z,13.23
2018-04-08T11:05:34.862Z,11.33
2018-04-08T11:08:02.361Z,11.80
2018-04-08T11:10:29.832Z,10.20
2018-04-08T11:12:58.059Z,11.47
2018-04-08T11:15:25.555Z,12.83
2018-04-08T11:17:53.790Z,13.77
2018-04-08T11:20:21.543Z,13.47
2018-04-08T11:22:49.029Z,13.50
2018-04-08T11:25:16.500Z,13.80
2018-04-08T11:27:43.959Z,14.17
2018-04-08T11:30:12.207Z,14.13
2018-04-08T11:32:41.215Z,14.37
2018-04-08T11:35:08.718Z,12.60
2018-04-08T11:37:36.186Z,13.43
2018-04-08T11:40:03.655Z,12.60
2018-04-08T11:42:31.155Z,13.20
2018-04-08T11:44:59.387Z,12.70
2018-04-08T11:47:26.852Z,13.03
2018-04-08T11:49:54.332Z,13.43
2018-04-08T11:52:22.672Z,13.73
2018-04-08T11:54:50.081Z,12.47
2018-04-08T11:57:18.315Z,12.87
2018-04-08T11:59:45.778Z,11.80
2018-04-08T12:02:13.274Z,11.70
2018-04-08T12:04:41.496Z,11.20
2018-04-08T12:07:08.968Z,11.00
2018-04-08T12:09:37.229Z,11.83
2018-04-08T12:12:04.702Z,11.97
2018-04-08T12:14:32.166Z,13.27
2018-04-08T12:16:59.661Z,12.27
2018-04-08T12:19:27.129Z,11.27
2018-04-08T12:21:54.611Z,8.60
2018-04-08T12:24:22.098Z,11.23
2018-04-08T12:26:49.554Z,10.10
2018-04-08T12:29:17.030Z,12.70
2018-04-08T12:31:45.287Z,11.90
2018-04-08T12:34:12.754Z,11.47
2018-04-08T12:36:40.995Z,11.47
2018-04-08T12:39:08.499Z,12.77
2018-04-08T12:41:36.730Z,11.50
2018-04-08T12:44:04.221Z,11.33
2018-04-08T12:46:32.463Z,10.77
2018-04-08T12:48:59.958Z,10.30
2018-04-08T12:51:28.209Z,7.80
2018-04-08T12:53:55.709Z,9.20
2018-04-08T12:56:23.168Z,8.93
2018-04-08T12:58:50.640Z,9.37
2018-04-08T13:01:18.146Z,8.13
2018-04-08T13:03:45.628Z,6.57
2018-04-08T13:06:13.863Z,6.80
2018-04-08T13:08:41.364Z,8.07
2018-04-08T13:11:08.817Z,6.97
2018-04-08T13:13:36.407Z,9.50
2018-04-08T13:16:03.916Z,9.47
2018-04-08T13:18:32.130Z,9.00
2018-04-08T13:20:59.596Z,9.23
2018-04-08T13:23:27.070Z,8.30
2018-04-08T13:25:54.549Z,8.97
2018-04-08T13:28:22.018Z,10.17
2018-04-08T13:30:50.266Z,8.10
2018-04-08T13:33:17.745Z,8.57
2018-04-08T13:35:45.987Z,8.50
2018-04-08T13:38:13.448Z,6.20
2018-04-08T13:40:40.916Z,4.17
2018-04-08T13:43:09.919Z,3.90
2018-04-08T13:45:39.074Z,3.27
2018-04-08T13:48:06.536Z,2.57
2018-04-08T13:50:34.024Z,3.60
2018-04-08T13:53:01.483Z,3.17
2018-04-08T13:55:28.982Z,3.70
2018-04-08T13:57:56.458Z,3.83
2018-04-08T14:00:23.931Z,4.10
2018-04-08T14:02:51.386Z,4.43
2018-04-08T14:05:18.879Z,4.47
2018-04-08T14:07:47.104Z,4.93
2018-04-08T14:10:14.559Z,4.93
2018-04-08T14:12:43.230Z,4.47
2018-04-08T14:15:10.692Z,4.67
2018-04-08T14:17:38.156Z,4.90
2018-04-08T14:20:05.644Z,4.47
2018-04-08T14:22:33.107Z,4.43
2018-04-08T14:25:00.578Z,4.67
2018-04-08T14:27:28.835Z,4.40
2018-04-08T14:29:56.298Z,4.80
2018-04-08T14:32:24.518Z,3.63
2018-04-08T14:34:52.018Z,3.80
2018-04-08T14:37:19.490Z,3.33
2018-04-08T14:39:47.725Z,3.27
2018-04-08T14:42:15.203Z,3.97
2018-04-08T14:44:42.668Z,5.00
2018-04-08T14:47:10.118Z,4.50
2018-04-08T14:49:37.607Z,5.47
2018-04-08T14:52:05.070Z,4.00
2018-04-08T14:54:32.531Z,4.80
2018-04-08T14:57:00.005Z,4.47
2018-04-08T14:59:27.462Z,4.70
2018-04-08T15:01:54.936Z,5.17
2018-04-08T15:04:22.477Z,5.37
2018-04-08T15:06:49.973Z,5.27
2018-04-08T15:09:17.443Z,5.03
2018-04-08T15:11:45.694Z,5.50
2018-04-08T15:14:13.163Z,4.70
2018-04-08T15:16:41.394Z,6.50
2018-04-08T15:19:08.870Z,5.20
2018-04-08T15:21:36.363Z,5.77
2018-04-08T15:24:04.583Z,5.97
2018-04-08T15:26:32.067Z,5.20
2018-04-08T15:29:01.674Z,5.97
2018-04-08T15:31:29.158Z,6.23
2018-04-08T15:33:59.114Z,8.63
2018-04-08T15:36:27.303Z,8.97
2018-04-08T15:38:54.793Z,8.07
2018-04-08T15:41:23.047Z,7.70
2018-04-08T15:43:51.246Z,9.93
2018-04-08T15:46:19.522Z,10.80
2018-04-08T15:48:46.998Z,9.63
2018-04-08T15:51:14.582Z,7.67
2018-04-08T15:53:42.754Z,8.33
2018-04-08T15:56:12.162Z,6.87
2018-04-08T15:58:40.167Z,6.63
2018-04-08T16:01:09.810Z,7.40
2018-04-08T16:03:37.273Z,7.13
2018-04-08T16:06:05.707Z,6.17
2018-04-08T16:08:35.170Z,6.77
2018-04-08T16:11:02.930Z,14.60
2018-04-08T16:13:31.237Z,9.00
2018-04-08T16:15:59.693Z,7.60
2018-04-08T16:18:27.164Z,7.50
2018-04-08T16:20:54.804Z,6.60
2018-04-08T16:23:22.293Z,6.70
2018-04-08T16:25:49.763Z,7.00
2018-04-08T16:28:17.787Z,5.67
2018-04-08T16:30:46.539Z,6.83
2018-04-08T16:33:15.942Z,6.67
2018-04-08T16:35:44.826Z,5.80
2018-04-08T16:38:13.057Z,5.63
2018-04-08T16:40:41.415Z,6.10
2018-04-08T16:43:08.919Z,5.03
2018-04-08T16:45:38.006Z,5.80
2018-04-08T16:48:06.462Z,4.87
2018-04-08T16:50:33.949Z,5.20
2018-04-08T16:53:01.416Z,5.87
2018-04-08T16:55:28.906Z,5.30
2018-04-08T16:57:57.219Z,4.80
2018-04-08T17:00:25.497Z,5.73
2018-04-08T17:02:52.974Z,5.20
2018-04-08T17:05:20.424Z,5.80
2018-04-08T17:07:47.926Z,5.47
2018-04-08T17:10:16.166Z,5.43
2018-04-08T17:12:46.607Z,5.93
2018-04-08T17:15:14.854Z,6.20
2018-04-08T17:17:42.938Z,7.43
2018-04-08T17:20:10.426Z,7.23
2018-04-08T17:22:40.781Z,7.13
2018-04-08T17:25:09.078Z,6.57
2018-04-08T17:27:40.630Z,6.20
2018-04-08T17:30:08.110Z,5.83
2018-04-08T17:32:36.619Z,6.27
2018-04-08T17:35:05.608Z,6.73
2018-04-08T17:37:33.897Z,5.83
2018-04-08T17:40:01.356Z,5.47
2018-04-08T17:42:28.842Z,5.13
2018-04-08T17:44:56.345Z,5.50
2018-04-08T17:47:25.760Z,5.53
2018-04-08T17:49:53.993Z,4.80
2018-04-08T17:52:21.490Z,5.13
2018-04-08T17:54:48.974Z,4.90
2018-04-08T17:57:17.591Z,5.00
2018-04-08T17:59:45.108Z,5.50
2018-04-08T18:02:13.992Z,4.50
2018-04-08T18:04:41.481Z,4.60
2018-04-08T18:07:10.947Z,4.40
2018-04-08T18:09:38.441Z,4.30
2018-04-08T18:12:06.955Z,4.20
2018-04-08T18:14:35.945Z,4.33
2018-04-08T18:17:04.228Z,4.17
2018-04-08T18:19:33.318Z,4.50
2018-04-08T18:22:01.568Z,4.30
2018-04-08T18:24:29.068Z,3.77
2018-04-08T18:26:57.294Z,4.37
2018-04-08T18:29:25.331Z,4.17
2018-04-08T18:31:54.039Z,3.87
2018-04-08T18:34:21.514Z,4.00
2018-04-08T18:36:49.909Z,3.70
2018-04-08T18:39:18.391Z,3.70
2018-04-08T18:41:46.430Z,3.93
2018-04-08T18:44:13.903Z,3.83
2018-04-08T18:46:41.378Z,3.93
2018-04-08T18:49:09.622Z,3.70
2018-04-08T18:51:37.541Z,3.90
2018-04-08T18:54:06.168Z,3.80
2018-04-08T18:56:33.646Z,3.83
2018-04-08T18:59:02.073Z,4.70
2018-04-08T19:01:30.047Z,3.40
2018-04-08T19:03:58.074Z,4.10
2018-04-08T19:06:25.675Z,3.90
2018-04-08T19:08:57.790Z,4.03
2018-04-08T19:11:25.875Z,3.57
2018-04-08T19:13:54.611Z,3.83
2018-04-08T19:16:22.067Z,4.83
2018-04-08T19:18:49.557Z,5.47
2018-04-08T19:21:17.824Z,5.30
2018-04-08T19:23:48.112Z,5.67
2018-04-08T19:26:16.331Z,4.80
2018-04-08T19:28:43.800Z,5.17
2018-04-08T19:31:12.052Z,5.37
2018-04-08T19:33:40.516Z,4.60
2018-04-08T19:36:10.920Z,3.90
2018-04-08T19:38:38.393Z,4.30
2018-04-08T19:41:06.831Z,4.70
2018-04-08T19:43:35.882Z,4.80
2018-04-08T19:46:03.371Z,4.60
2018-04-08T19:48:31.615Z,4.87
2018-04-08T19:50:59.842Z,6.23
2018-04-08T19:53:28.463Z,5.20
2018-04-08T19:55:55.940Z,4.93
2018-04-08T19:58:24.218Z,4.83
2018-04-08T20:00:51.687Z,5.40
2018-04-08T20:03:19.939Z,4.00
2018-04-08T20:05:47.414Z,4.90
2018-04-08T20:08:14.890Z,4.73
2018-04-08T20:10:43.142Z,5.33
2018-04-08T20:13:10.648Z,5.53
2018-04-08T20:15:38.110Z,4.27
2018-04-08T20:18:08.600Z,4.50
2018-04-08T20:20:36.822Z,4.27
2018-04-08T20:23:04.304Z,4.43
2018-04-08T20:25:32.936Z,5.43
2018-04-08T20:28:00.387Z,4.97
2018-04-08T20:30:27.855Z,6.00
2018-04-08T20:32:55.379Z,5.30
2018-04-08T20:35:24.534Z,4.57
2018-04-08T20:37:51.998Z,5.60
2018-04-08T20:40:19.540Z,4.87
2018-04-08T20:42:48.533Z,5.67
2018-04-08T20:45:19.054Z,5.20
2018-04-08T20:47:47.432Z,4.97
2018-04-08T20:50:15.793Z,5.00
2018-04-08T20:52:44.066Z,4.43
2018-04-08T20:55:12.515Z,4.30
2018-04-08T20:57:39.975Z,4.63
2018-04-08T21:00:08.197Z,4.07
2018-04-08T21:02:35.682Z,4.60
2018-04-08T21:05:03.146Z,4.30
2018-04-08T21:07:30.683Z,4.27
2018-04-08T21:09:58.143Z,4.23
2018-04-08T21:12:25.609Z,4.90
2018-04-08T21:14:53.109Z,4.50
2018-04-08T21:17:20.566Z,4.83
2018-04-08T21:19:48.146Z,4.67
2018-04-08T21:22:15.638Z,4.60
2018-04-08T21:24:43.122Z,4.33
2018-04-08T21:27:11.342Z,5.00
2018-04-08T21:29:38.827Z,4.77
2018-04-08T21:32:10.851Z,5.30
2018-04-08T21:34:38.325Z,4.47
2018-04-08T21:37:05.795Z,5.00
2018-04-08T21:39:33.254Z,5.37
2018-04-08T21:42:00.783Z,4.30
2018-04-08T21:44:28.305Z,4.90
2018-04-08T21:46:56.534Z,4.40
2018-04-08T21:49:24.011Z,4.60
2018-04-08T21:51:51.485Z,5.13
2018-04-08T21:54:19.717Z,4.90
2018-04-08T21:56:47.207Z,4.77
2018-04-08T21:59:14.766Z,5.00
2018-04-08T22:01:42.220Z,5.53
2018-04-08T22:04:09.698Z,5.30
2018-04-08T22:06:37.923Z,5.10
2018-04-08T22:09:05.386Z,5.80
2018-04-08T22:11:32.874Z,5.80
2018-04-08T22:14:00.326Z,5.40
2018-04-08T22:16:27.787Z,5.87
2018-04-08T22:18:55.286Z,5.67
2018-04-08T22:21:22.750Z,6.20
2018-04-08T22:23:50.263Z,5.00
2018-04-08T22:26:18.507Z,5.27
2018-04-08T22:28:45.971Z,5.50
2018-04-08T22:31:13.434Z,5.40
2018-04-08T22:33:40.923Z,5.40
2018-04-08T22:36:09.146Z,5.13
2018-04-08T22:38:36.610Z,5.23
2018-04-08T22:41:04.102Z,5.37
2018-04-08T22:43:31.556Z,5.93
2018-04-08T22:45:59.790Z,5.13
2018-04-08T22:48:27.265Z,5.30
2018-04-08T22:50:54.755Z,5.47
2018-04-08T22:53:22.219Z,5.03
2018-04-08T22:55:49.725Z,5.47
2018-04-08T22:58:17.205Z,5.80
2018-04-08T23:00:44.654Z,5.20
2018-04-08T23:03:12.159Z,5.53
2018-04-08T23:05:39.616Z,4.90
2018-04-08T23:08:07.074Z,5.73
2018-04-08T23:10:34.580Z,5.27
2018-04-08T23:13:02.055Z,6.10
2018-04-08T23:15:30.299Z,5.60
2018-04-08T23:17:57.778Z,5.80
2018-04-08T23:20:26.007Z,4.73
2018-04-08T23:22:53.485Z,5.50
2018-04-08T23:25:20.969Z,5.70
2018-04-08T23:27:49.190Z,6.87
2018-04-08T23:30:16.660Z,6.17
2018-04-08T23:32:44.143Z,5.53
2018-04-08T23:35:11.613Z,5.07
2018-04-08T23:37:39.839Z,5.63
2018-04-08T23:40:07.328Z,5.73
2018-04-08T23:42:34.782Z,5.73
2018-04-08T23:45:02.254Z,6.07
2018-04-08T23:47:30.494Z,5.57
2018-04-08T23:49:57.957Z,6.13
2018-04-08T23:52:25.421Z,5.87
2018-04-08T23:54:52.910Z,5.27
2018-04-08T23:57:21.141Z,5.53
2018-04-08T23:59:48.605Z,5.40
